Archival Weather

Chicago O'Hare International

Chicago, Illinois (KORD)

Report from: Tuesday, May 2, 2023 10:51 PM CDT
Current time: Sunday, February 25, 2024 2:48 PM CST

Current weather – Weather history – Daily summaries
Weather forecast

Temperature7.8°C (46.0°F)
Wind chill4.4°C (39.9°F)
Dew point-1.7°C (28.9°F)
Winds 12 kts (6.2 m/s, 13.8 mph) North-Northwest (330°)
Wind gusts 17 kts (8.7 m/s, 19.6 mph)
Visibility10 mi. (16.1 km)
Clouds Ceiling: Broken clouds 5,000 ft. (1,524 m)
Broken clouds 6,500 ft. (1,981 m)
Altimeter29.78 in.Hg (1008 mB)
Relative humidity51 %
Density altitude-619 ft. (-189 m)
Sea-level pressure100.9 kPa (1009 mB, 29.78 in.Hg)
Remarks Automated weather observing station with precipitation discriminator
Flight conditions Visual Meteorological Conditions
Raw dataKORD 030351Z 33012G17KT 10SM BKN050 BKN065 08/M02 A2978 RMK AO2 SLP085 T00781017
An error has occurred. This application may no longer respond until reloaded. Reload 🗙